This is the latest recevied weather packets stored in our database for station/object OE9FWV-10. If no packets are shown the sender has not sent any weather packets the latest 10 day(s).
| Time | Temp. | Humidity | Pressure | Rain* | Wind** | Luminosity | Snow |
|---|---|---|---|---|---|---|---|
| 1777826578 | 30° C | 21% | 1016.1 hPa | - | - | - | - |
| 1777825678 | 30.56° C | 21% | 1016.1 hPa | - | - | - | - |
| 1777814877 | 35.56° C | 15% | 1016.2 hPa | - | - | - | - |
| 1777811277 | 38.89° C | 13% | 1016.8 hPa | - | - | - | - |
| 1777810377 | 38.33° C | 14% | 1016.9 hPa | - | - | - | - |
| 1777804076 | 31.67° C | 19% | 1018 hPa | - | - | - | - |
| 1777803176 | 32.78° C | 19% | 1018.1 hPa | - | - | - | - |
| 1777800476 | 28.89° C | 23% | 1018.5 hPa | - | - | - | - |
| 1777799575 | 27.78° C | 24% | 1018.7 hPa | - | - | - | - |
| 1777798675 | 27.78° C | 24% | 1018.8 hPa | - | - | - | - |
| 1777797775 | 27.78° C | 24% | 1018.7 hPa | - | - | - | - |
| 1777796875 | 27.78° C | 24% | 1018.9 hPa | - | - | - | - |
| 1777795975 | 27.78° C | 24% | 1018.9 hPa | - | - | - | - |
| 1777795075 | 27.22° C | 25% | 1019 hPa | - | - | - | - |
| 1777793274 | 27.22° C | 25% | 1019 hPa | - | - | - | - |
| 1777792374 | 26.67° C | 25% | 1019.2 hPa | - | - | - | - |
| 1777791474 | 26.67° C | 26% | 1019.2 hPa | - | - | - | - |
| 1777790574 | 26.11° C | 26% | 1019.2 hPa | - | - | - | - |
| 1777789674 | 25.56° C | 26% | 1019.3 hPa | - | - | - | - |
| 1777788774 | 25.56° C | 27% | 1019.2 hPa | - | - | - | - |
| 1777787874 | 25.56° C | 27% | 1019.4 hPa | - | - | - | - |
| 1777786974 | 25° C | 27% | 1019.4 hPa | - | - | - | - |
| 1777786074 | 25° C | 27% | 1019.3 hPa | - | - | - | - |
| 1777785174 | 25° C | 27% | 1019.5 hPa | - | - | - | - |
| 1777784274 | 25° C | 28% | 1019.6 hPa | - | - | - | - |
* Rain since midnight (hover to see other rain measurements)
** Current wind speed in m/s (hover to see current wind gust speed)